createdAt,value
2018-12-18T00:01:51.032Z,21.03
2018-12-18T00:04:18.644Z,20.99
2018-12-18T00:06:46.249Z,21.01
2018-12-18T00:09:13.917Z,21.02
2018-12-18T00:11:41.526Z,21.03
2018-12-18T00:14:09.396Z,20.95
2018-12-18T00:16:37.018Z,20.97
2018-12-18T00:19:04.701Z,21.08
2018-12-18T00:21:32.324Z,21.09
2018-12-18T00:24:00.060Z,21.05
2018-12-18T00:26:27.693Z,20.96
2018-12-18T00:28:55.302Z,21.01
2018-12-18T00:31:23.004Z,21.00
2018-12-18T00:33:50.609Z,20.98
2018-12-18T00:36:18.216Z,21.03
2018-12-18T00:38:45.832Z,21.06
2018-12-18T00:41:13.452Z,21.01
2018-12-18T00:43:41.138Z,21.00
2018-12-18T00:46:08.789Z,20.96
2018-12-18T00:48:36.390Z,20.96
2018-12-18T00:51:03.989Z,20.96
2018-12-18T00:53:31.597Z,20.97
2018-12-18T00:55:59.199Z,21.04
2018-12-18T00:58:26.833Z,21.02
2018-12-18T01:00:54.477Z,20.97
2018-12-18T01:03:22.093Z,21.01
2018-12-18T01:05:49.700Z,21.00
2018-12-18T01:08:17.347Z,21.01
2018-12-18T01:10:44.956Z,21.05
2018-12-18T01:13:12.595Z,21.00
2018-12-18T01:15:40.207Z,21.09
2018-12-18T01:18:07.861Z,21.07
2018-12-18T01:20:35.466Z,21.04
2018-12-18T01:23:03.093Z,20.99
2018-12-18T01:25:30.724Z,21.01
2018-12-18T01:27:58.413Z,21.04
2018-12-18T01:30:26.025Z,21.03
2018-12-18T01:32:53.793Z,21.01
2018-12-18T01:35:21.418Z,21.04
2018-12-18T01:37:49.032Z,21.01
2018-12-18T01:40:16.667Z,21.05
2018-12-18T01:42:44.306Z,21.03
2018-12-18T01:45:11.937Z,21.02
2018-12-18T01:47:39.553Z,20.96
2018-12-18T01:50:07.194Z,20.99
2018-12-18T01:52:34.811Z,21.00
2018-12-18T01:55:02.624Z,20.96
2018-12-18T01:57:30.290Z,20.99
2018-12-18T01:59:57.884Z,20.99
2018-12-18T02:02:25.506Z,21.02
2018-12-18T02:04:53.163Z,21.01
2018-12-18T02:07:20.847Z,21.02
2018-12-18T02:09:48.492Z,20.98
2018-12-18T02:12:16.153Z,20.91
2018-12-18T02:14:43.759Z,21.02
2018-12-18T02:17:11.384Z,20.96
2018-12-18T02:19:39.064Z,19.15
2018-12-18T02:22:06.736Z,20.98
2018-12-18T02:24:34.382Z,20.95
2018-12-18T02:27:02.015Z,21.04
2018-12-18T02:29:29.638Z,21.03
2018-12-18T02:31:57.258Z,21.01
2018-12-18T02:34:24.889Z,21.03
2018-12-18T02:36:52.501Z,21.03
2018-12-18T02:39:20.188Z,21.05
2018-12-18T02:41:47.820Z,20.99
2018-12-18T02:44:15.473Z,20.99
2018-12-18T02:46:43.105Z,21.01
2018-12-18T02:49:10.709Z,21.00
2018-12-18T02:51:38.412Z,20.97
2018-12-18T02:54:06.053Z,21.00
2018-12-18T02:56:33.798Z,20.95
2018-12-18T02:59:01.487Z,21.00
2018-12-18T03:01:29.105Z,20.97
2018-12-18T03:03:56.793Z,21.06
2018-12-18T03:06:24.404Z,21.02
2018-12-18T03:08:51.996Z,20.92
2018-12-18T03:11:20.628Z,20.97
2018-12-18T03:13:48.604Z,20.95
2018-12-18T03:16:16.305Z,20.92
2018-12-18T03:18:43.973Z,20.95
2018-12-18T03:21:11.650Z,20.98
2018-12-18T03:23:39.332Z,21.03
2018-12-18T03:26:07.019Z,20.98
2018-12-18T03:28:34.647Z,21.10
2018-12-18T03:31:02.257Z,21.07
2018-12-18T03:33:29.995Z,21.02
2018-12-18T03:35:57.612Z,21.09
2018-12-18T03:38:25.340Z,21.08
2018-12-18T03:40:53.017Z,21.04
2018-12-18T03:43:20.662Z,20.99
2018-12-18T03:45:48.272Z,21.00
2018-12-18T03:48:15.935Z,21.07
2018-12-18T03:50:43.684Z,21.04
2018-12-18T03:53:11.388Z,21.01
2018-12-18T03:55:39.020Z,21.04
2018-12-18T03:58:06.664Z,21.11
2018-12-18T04:00:34.287Z,21.09
2018-12-18T04:03:02.013Z,21.01
2018-12-18T04:05:29.668Z,21.02
2018-12-18T04:07:57.340Z,21.05
2018-12-18T04:10:24.981Z,21.07
2018-12-18T04:12:52.689Z,21.05
2018-12-18T04:15:20.366Z,21.06
2018-12-18T04:17:48.053Z,21.02
2018-12-18T04:20:15.900Z,21.03
2018-12-18T04:22:43.503Z,21.17
2018-12-18T04:25:11.137Z,21.14
2018-12-18T04:27:38.756Z,21.14
2018-12-18T04:30:07.036Z,21.06
2018-12-18T04:32:34.825Z,21.09
2018-12-18T04:35:02.510Z,21.13
2018-12-18T04:37:30.450Z,21.27
2018-12-18T04:39:58.243Z,21.18
2018-12-18T04:42:26.032Z,21.19
2018-12-18T04:44:53.716Z,21.18
2018-12-18T04:47:21.395Z,21.15
2018-12-18T04:49:49.061Z,21.16
2018-12-18T04:52:16.750Z,21.20
2018-12-18T04:54:44.482Z,21.14
2018-12-18T04:57:12.152Z,21.14
2018-12-18T04:59:40.101Z,21.05
2018-12-18T05:02:07.710Z,21.14
2018-12-18T05:04:35.329Z,21.12
2018-12-18T05:07:03.074Z,21.17
2018-12-18T05:09:30.717Z,21.09
2018-12-18T05:11:58.321Z,21.13
2018-12-18T05:14:25.937Z,21.06
2018-12-18T05:16:53.535Z,21.09
2018-12-18T05:19:21.210Z,21.07
2018-12-18T05:21:48.848Z,21.18
2018-12-18T05:24:16.517Z,21.12
2018-12-18T05:26:44.180Z,21.10
2018-12-18T05:29:11.769Z,21.03
2018-12-18T05:31:39.457Z,21.10
2018-12-18T05:34:07.103Z,21.11
2018-12-18T05:36:34.759Z,21.16
2018-12-18T05:39:02.609Z,21.19
2018-12-18T05:41:30.237Z,21.15
2018-12-18T05:43:57.961Z,21.15
2018-12-18T05:46:25.638Z,21.16
2018-12-18T05:48:53.248Z,21.13
2018-12-18T05:51:20.876Z,21.12
2018-12-18T05:53:48.519Z,21.15
2018-12-18T05:56:16.096Z,21.13
2018-12-18T05:58:43.720Z,21.12
2018-12-18T06:01:11.432Z,21.10
2018-12-18T06:03:39.090Z,21.15
2018-12-18T06:06:06.717Z,21.09
2018-12-18T06:08:34.332Z,21.13
2018-12-18T06:11:01.970Z,21.09
2018-12-18T06:13:29.611Z,21.09
2018-12-18T06:15:57.231Z,21.14
2018-12-18T06:18:24.863Z,21.17
2018-12-18T06:20:52.489Z,21.15
2018-12-18T06:23:20.072Z,21.12
2018-12-18T06:25:47.714Z,21.12
2018-12-18T06:28:15.366Z,21.09
2018-12-18T06:30:42.992Z,21.13
2018-12-18T06:33:10.584Z,21.12
2018-12-18T06:35:38.268Z,21.10
2018-12-18T06:38:05.914Z,21.13
2018-12-18T06:40:33.495Z,21.16
2018-12-18T06:43:01.136Z,21.15
2018-12-18T06:45:28.752Z,21.17
2018-12-18T06:47:56.360Z,21.13
2018-12-18T06:50:23.974Z,21.09
2018-12-18T06:52:51.704Z,21.09
2018-12-18T06:55:19.287Z,21.14
2018-12-18T06:57:52.909Z,21.20
2018-12-18T07:00:20.659Z,21.16
2018-12-18T07:02:48.307Z,21.18
2018-12-18T07:05:16.960Z,21.17
2018-12-18T07:07:45.006Z,21.17
2018-12-18T07:10:12.735Z,21.21
2018-12-18T07:12:40.504Z,21.20
2018-12-18T07:15:08.208Z,21.13
2018-12-18T07:17:35.878Z,21.20
2018-12-18T07:20:03.633Z,21.14
2018-12-18T07:22:31.372Z,21.20
2018-12-18T07:24:59.228Z,21.21
2018-12-18T07:27:26.955Z,21.20
2018-12-18T07:29:54.649Z,21.18
2018-12-18T07:32:22.410Z,21.25
2018-12-18T07:34:50.270Z,21.22
2018-12-18T07:37:18.030Z,21.24
2018-12-18T07:39:45.914Z,21.32
2018-12-18T07:42:13.634Z,21.34
2018-12-18T07:44:41.430Z,21.40
2018-12-18T07:47:09.097Z,21.34
2018-12-18T07:49:37.201Z,21.38
2018-12-18T07:52:04.914Z,21.40
2018-12-18T07:54:32.671Z,21.21
2018-12-18T07:57:00.307Z,21.23
2018-12-18T07:59:28.028Z,21.20
2018-12-18T08:01:55.767Z,21.22
2018-12-18T08:04:23.457Z,21.16
2018-12-18T08:06:51.317Z,21.18
2018-12-18T08:09:19.143Z,21.20
2018-12-18T08:11:46.926Z,21.17
2018-12-18T08:14:14.665Z,21.20
2018-12-18T08:16:42.370Z,21.20
2018-12-18T08:19:10.112Z,21.17
2018-12-18T08:21:38.205Z,21.16
2018-12-18T08:24:05.910Z,21.22
2018-12-18T08:26:33.736Z,21.05
2018-12-18T08:29:01.574Z,21.07
2018-12-18T08:31:29.515Z,20.68
2018-12-18T08:33:57.406Z,21.12
2018-12-18T08:36:25.123Z,21.14
2018-12-18T08:38:52.936Z,21.10
2018-12-18T08:41:20.668Z,21.10
2018-12-18T08:43:48.491Z,21.16
2018-12-18T08:46:16.232Z,21.18
2018-12-18T08:48:43.953Z,21.16
2018-12-18T08:51:11.767Z,21.17
2018-12-18T08:53:39.491Z,21.16
2018-12-18T08:56:07.168Z,21.21
2018-12-18T08:58:34.846Z,21.11
2018-12-18T09:01:02.524Z,21.08
2018-12-18T09:03:30.272Z,21.11
2018-12-18T09:05:57.965Z,21.09
2018-12-18T09:08:25.677Z,21.07
2018-12-18T09:10:53.507Z,21.11
2018-12-18T09:13:21.174Z,21.03
2018-12-18T09:15:54.247Z,21.07
2018-12-18T09:18:22.043Z,21.04
2018-12-18T09:20:50.012Z,21.06
2018-12-18T09:23:17.823Z,21.14
2018-12-18T09:25:45.689Z,21.11
2018-12-18T09:28:13.492Z,21.10
2018-12-18T09:30:42.701Z,21.12
2018-12-18T09:33:10.913Z,21.10
2018-12-18T09:35:38.756Z,21.12
2018-12-18T09:38:11.831Z,21.12
2018-12-18T09:40:44.874Z,21.06
2018-12-18T09:43:18.025Z,21.12
2018-12-18T09:45:47.972Z,21.18
2018-12-18T09:48:15.798Z,21.12
2018-12-18T09:50:43.594Z,21.17
2018-12-18T09:53:11.417Z,21.14
2018-12-18T09:55:39.313Z,21.15
2018-12-18T09:58:11.583Z,21.18
2018-12-18T10:00:39.442Z,21.18
2018-12-18T10:03:07.715Z,21.17
2018-12-18T10:05:35.560Z,21.18
2018-12-18T10:08:08.823Z,21.17
2018-12-18T10:10:36.625Z,21.15
2018-12-18T10:13:04.495Z,21.16
2018-12-18T10:15:32.260Z,21.16
2018-12-18T10:18:00.127Z,21.19
2018-12-18T10:20:27.968Z,21.17
2018-12-18T10:22:55.773Z,21.15
2018-12-18T10:25:23.545Z,21.19
2018-12-18T10:27:51.384Z,21.19
2018-12-18T10:30:19.212Z,21.19
2018-12-18T10:32:47.049Z,21.17
2018-12-18T10:35:14.841Z,21.18
2018-12-18T10:37:42.650Z,21.24
2018-12-18T10:40:10.726Z,21.27
2018-12-18T10:42:38.505Z,21.30
2018-12-18T10:45:13.576Z,21.27
2018-12-18T10:47:37.928Z,21.20
2018-12-18T10:50:05.821Z,21.20
2018-12-18T10:52:33.728Z,21.23
2018-12-18T10:55:01.561Z,21.24
2018-12-18T10:57:29.388Z,21.24
2018-12-18T10:59:57.197Z,21.19
2018-12-18T11:02:25.057Z,21.22
2018-12-18T11:04:52.863Z,21.31
2018-12-18T11:07:20.751Z,21.22
2018-12-18T11:09:48.560Z,21.21
2018-12-18T11:12:20.529Z,21.14
2018-12-18T11:14:48.406Z,21.22
2018-12-18T11:17:16.226Z,21.19
2018-12-18T11:19:44.078Z,21.23
2018-12-18T11:22:11.905Z,21.26
2018-12-18T11:24:39.740Z,21.21
2018-12-18T11:27:07.596Z,21.18
2018-12-18T11:29:35.455Z,21.13
2018-12-18T11:32:03.302Z,21.14
2018-12-18T11:34:31.216Z,21.10
2018-12-18T11:36:59.052Z,21.16
2018-12-18T11:39:26.922Z,21.15
2018-12-18T11:41:54.759Z,21.14
2018-12-18T11:44:22.591Z,21.16
2018-12-18T11:46:50.465Z,21.17
2018-12-18T11:49:18.342Z,21.15
2018-12-18T11:51:46.175Z,21.17
2018-12-18T11:54:14.039Z,21.12
2018-12-18T11:56:41.968Z,21.17
2018-12-18T11:59:09.763Z,21.19
2018-12-18T12:01:37.592Z,21.16
2018-12-18T12:04:05.586Z,21.15
2018-12-18T12:06:33.381Z,21.11
2018-12-18T12:09:01.114Z,21.11
2018-12-18T12:11:28.851Z,21.13
2018-12-18T12:13:56.622Z,21.17
2018-12-18T12:16:24.401Z,21.12
2018-12-18T12:18:52.254Z,21.17
2018-12-18T12:21:19.992Z,21.13
2018-12-18T12:23:47.786Z,21.12
2018-12-18T12:26:20.795Z,21.00
2018-12-18T12:28:48.533Z,21.11
2018-12-18T12:31:16.299Z,21.12
2018-12-18T12:33:44.078Z,21.17
2018-12-18T12:36:11.909Z,21.20
2018-12-18T12:38:39.703Z,21.15
2018-12-18T12:41:07.508Z,21.14
2018-12-18T12:43:35.251Z,21.10
2018-12-18T12:46:03.201Z,21.16
2018-12-18T12:48:36.295Z,20.06
2018-12-18T12:51:04.043Z,21.14
2018-12-18T12:53:31.827Z,21.16
2018-12-18T12:55:59.653Z,21.18
2018-12-18T12:58:27.443Z,21.10
2018-12-18T13:00:55.298Z,21.05
2018-12-18T13:03:23.076Z,21.05
2018-12-18T13:05:50.965Z,21.04
2018-12-18T13:08:18.714Z,21.08
2018-12-18T13:10:46.495Z,21.12
2018-12-18T13:13:14.241Z,21.08
2018-12-18T13:15:41.921Z,21.11
2018-12-18T13:18:09.682Z,21.10
2018-12-18T13:20:37.478Z,21.08
2018-12-18T13:23:05.237Z,21.05
2018-12-18T13:25:32.929Z,21.06
2018-12-18T13:28:00.709Z,21.16
2018-12-18T13:30:28.498Z,21.19
2018-12-18T13:32:56.223Z,21.16
2018-12-18T13:35:23.975Z,21.07
2018-12-18T13:37:51.780Z,21.06
2018-12-18T13:40:19.540Z,21.11
2018-12-18T13:42:47.411Z,21.05
2018-12-18T13:45:15.127Z,21.06
2018-12-18T13:47:42.805Z,21.06
2018-12-18T13:50:10.514Z,21.04
2018-12-18T13:52:38.220Z,21.10
2018-12-18T13:55:05.900Z,21.05
2018-12-18T13:57:33.684Z,21.17
2018-12-18T14:00:01.433Z,20.48
2018-12-18T14:02:29.143Z,21.09
2018-12-18T14:04:56.872Z,21.09
2018-12-18T14:07:24.656Z,21.12
2018-12-18T14:09:52.409Z,21.08
2018-12-18T14:12:20.116Z,21.14
2018-12-18T14:14:47.802Z,21.15
2018-12-18T14:17:15.574Z,21.14
2018-12-18T14:19:43.287Z,21.15
2018-12-18T14:22:11.233Z,21.11
2018-12-18T14:24:38.957Z,21.14
2018-12-18T14:27:06.674Z,21.13
2018-12-18T14:29:34.464Z,21.14
2018-12-18T14:32:02.149Z,21.20
2018-12-18T14:34:29.918Z,21.12
2018-12-18T14:36:57.793Z,21.12
2018-12-18T14:39:25.649Z,21.10
2018-12-18T14:41:53.496Z,21.14
2018-12-18T14:44:21.414Z,21.18
2018-12-18T14:46:49.181Z,21.21
2018-12-18T14:49:16.949Z,21.11
2018-12-18T14:51:44.641Z,21.10
2018-12-18T14:54:12.471Z,21.11
2018-12-18T14:56:40.644Z,21.15
2018-12-18T14:59:08.410Z,21.12
2018-12-18T15:01:36.581Z,21.13
2018-12-18T15:04:04.454Z,21.14
2018-12-18T15:06:32.844Z,21.06
2018-12-18T15:09:01.042Z,21.10
2018-12-18T15:11:28.966Z,21.10
2018-12-18T15:13:57.127Z,21.08
2018-12-18T15:16:24.968Z,21.12
2018-12-18T15:18:52.735Z,21.11
2018-12-18T15:21:20.509Z,21.09
2018-12-18T15:23:48.673Z,21.11
2018-12-18T15:26:16.679Z,21.18
2018-12-18T15:28:44.682Z,21.12
2018-12-18T15:31:12.779Z,21.01
2018-12-18T15:33:40.555Z,21.08
2018-12-18T15:36:08.437Z,21.12
2018-12-18T15:38:36.478Z,21.09
2018-12-18T15:41:04.434Z,21.13
2018-12-18T15:43:32.292Z,21.17
2018-12-18T15:46:00.273Z,21.16
2018-12-18T15:48:28.252Z,21.12
2018-12-18T15:50:56.261Z,21.05
2018-12-18T15:53:24.045Z,21.05
2018-12-18T15:55:52.847Z,21.07
2018-12-18T15:58:20.568Z,20.95
2018-12-18T16:00:48.344Z,21.06
2018-12-18T16:03:17.106Z,21.06
2018-12-18T16:05:45.002Z,21.08
2018-12-18T16:08:12.706Z,21.02
2018-12-18T16:10:40.494Z,21.02
2018-12-18T16:13:08.278Z,21.06
2018-12-18T16:15:36.113Z,21.08
2018-12-18T16:18:03.908Z,21.08
2018-12-18T16:20:31.629Z,21.07
2018-12-18T16:22:59.515Z,21.09
2018-12-18T16:25:27.313Z,21.15
2018-12-18T16:27:55.111Z,21.15
2018-12-18T16:30:22.987Z,21.12
2018-12-18T16:32:50.773Z,21.14
2018-12-18T16:35:18.538Z,21.09
2018-12-18T16:37:46.377Z,21.14
2018-12-18T16:40:14.166Z,21.16
2018-12-18T16:42:42.015Z,21.16
2018-12-18T16:45:09.848Z,21.13
2018-12-18T16:47:37.628Z,21.12
2018-12-18T16:50:05.461Z,21.20
2018-12-18T16:52:33.186Z,21.15
2018-12-18T16:55:00.963Z,20.55
2018-12-18T16:57:28.809Z,20.62
2018-12-18T16:59:56.574Z,21.18
2018-12-18T17:02:24.393Z,21.18
2018-12-18T17:04:52.440Z,21.13
2018-12-18T17:07:20.281Z,21.22
2018-12-18T17:09:48.106Z,21.16
2018-12-18T17:12:15.924Z,21.16
2018-12-18T17:14:43.707Z,21.18
2018-12-18T17:17:11.663Z,21.15
2018-12-18T17:19:39.612Z,21.16
2018-12-18T17:22:07.407Z,21.19
2018-12-18T17:24:35.174Z,21.21
2018-12-18T17:27:02.982Z,21.20
2018-12-18T17:29:30.798Z,21.17
2018-12-18T17:31:58.521Z,21.13
2018-12-18T17:34:26.337Z,21.08
2018-12-18T17:36:54.149Z,21.12
2018-12-18T17:39:21.933Z,21.12
2018-12-18T17:41:49.725Z,21.14
2018-12-18T17:44:17.481Z,21.13
2018-12-18T17:46:45.354Z,21.12
2018-12-18T17:49:13.101Z,21.21
2018-12-18T17:51:40.928Z,21.13
2018-12-18T17:54:08.633Z,21.15
2018-12-18T17:56:36.569Z,21.12
2018-12-18T17:59:04.295Z,21.18
2018-12-18T18:01:32.118Z,21.15
2018-12-18T18:03:59.858Z,21.16
2018-12-18T18:06:27.644Z,21.18
2018-12-18T18:08:55.442Z,21.18
2018-12-18T18:11:23.171Z,21.18
2018-12-18T18:13:51.005Z,21.21
2018-12-18T18:16:18.829Z,21.17
2018-12-18T18:18:46.613Z,21.21
2018-12-18T18:21:14.358Z,21.16
2018-12-18T18:23:42.225Z,21.17
2018-12-18T18:26:11.428Z,21.18
2018-12-18T18:28:39.205Z,21.20
2018-12-18T18:31:07.062Z,21.21
2018-12-18T18:33:34.862Z,21.23
2018-12-18T18:36:02.759Z,21.18
2018-12-18T18:38:30.457Z,21.19
2018-12-18T18:40:58.205Z,21.12
2018-12-18T18:43:25.946Z,21.15
2018-12-18T18:45:53.695Z,21.27
2018-12-18T18:48:21.474Z,21.31
2018-12-18T18:50:49.207Z,21.19
2018-12-18T18:53:16.965Z,21.24
2018-12-18T18:55:44.675Z,21.19
2018-12-18T18:58:12.437Z,21.15
2018-12-18T19:00:40.743Z,21.23
2018-12-18T19:03:08.487Z,21.19
2018-12-18T19:05:36.241Z,21.15
2018-12-18T19:08:03.926Z,21.12
2018-12-18T19:10:31.578Z,21.11
2018-12-18T19:12:59.235Z,21.12
2018-12-18T19:15:26.893Z,21.07
2018-12-18T19:17:54.601Z,21.10
2018-12-18T19:20:22.323Z,21.14
2018-12-18T19:22:49.996Z,21.11
2018-12-18T19:25:17.705Z,21.11
2018-12-18T19:27:45.418Z,21.12
2018-12-18T19:30:13.147Z,21.12
2018-12-18T19:32:40.856Z,21.09
2018-12-18T19:35:08.713Z,21.11
2018-12-18T19:37:36.434Z,21.18
2018-12-18T19:40:04.177Z,21.23
2018-12-18T19:42:31.915Z,21.22
2018-12-18T19:44:59.637Z,21.18
2018-12-18T19:47:27.235Z,21.10
2018-12-18T19:49:54.932Z,21.11
2018-12-18T19:52:22.744Z,21.07
2018-12-18T19:54:50.597Z,21.10
2018-12-18T19:57:18.480Z,21.19
2018-12-18T19:59:46.229Z,21.16
2018-12-18T20:02:13.850Z,21.13
2018-12-18T20:04:41.651Z,21.08
2018-12-18T20:07:10.574Z,21.12
2018-12-18T20:09:38.318Z,21.17
2018-12-18T20:12:06.057Z,21.14
2018-12-18T20:14:34.106Z,21.09
2018-12-18T20:17:01.951Z,21.23
2018-12-18T20:19:29.704Z,21.23
2018-12-18T20:21:57.370Z,21.17
2018-12-18T20:24:25.095Z,21.20
2018-12-18T20:26:52.849Z,21.19
2018-12-18T20:29:20.601Z,21.33
2018-12-18T20:31:48.347Z,21.39
2018-12-18T20:34:16.081Z,21.33
2018-12-18T20:36:45.267Z,21.36
2018-12-18T20:39:13.164Z,21.37
2018-12-18T20:41:40.781Z,21.39
2018-12-18T20:44:08.541Z,21.45
2018-12-18T20:46:36.333Z,21.42
2018-12-18T20:49:03.920Z,21.35
2018-12-18T20:51:31.533Z,21.40
2018-12-18T20:53:59.139Z,21.42
2018-12-18T20:56:26.880Z,21.55
2018-12-18T20:58:54.542Z,21.52
2018-12-18T21:01:22.315Z,21.53
2018-12-18T21:03:50.158Z,21.53
2018-12-18T21:06:17.926Z,21.52
2018-12-18T21:08:45.706Z,21.48
2018-12-18T21:11:13.612Z,21.56
2018-12-18T21:13:41.416Z,21.56
2018-12-18T21:16:09.125Z,21.51
2018-12-18T21:18:36.991Z,21.56
2018-12-18T21:21:04.726Z,21.58
2018-12-18T21:23:32.886Z,21.62
2018-12-18T21:26:00.709Z,21.65
2018-12-18T21:28:28.657Z,21.60
2018-12-18T21:30:56.512Z,21.65
2018-12-18T21:33:24.737Z,21.68
2018-12-18T21:35:52.899Z,21.65
2018-12-18T21:38:20.842Z,21.67
2018-12-18T21:40:48.774Z,21.69
2018-12-18T21:43:16.541Z,21.77
2018-12-18T21:45:44.265Z,21.73
2018-12-18T21:48:12.163Z,21.79
2018-12-18T21:50:39.967Z,21.86
2018-12-18T21:53:07.857Z,21.84
2018-12-18T21:55:36.101Z,21.79
2018-12-18T21:58:04.017Z,21.85
2018-12-18T22:00:31.863Z,21.92
2018-12-18T22:02:59.667Z,21.92
2018-12-18T22:05:27.498Z,21.97
2018-12-18T22:07:55.391Z,21.71
2018-12-18T22:10:23.199Z,22.01
2018-12-18T22:12:51.046Z,22.04
2018-12-18T22:15:18.898Z,22.05
2018-12-18T22:17:46.700Z,22.08
2018-12-18T22:20:14.602Z,22.08
2018-12-18T22:22:42.436Z,22.18
2018-12-18T22:25:10.353Z,22.14
2018-12-18T22:27:38.189Z,22.17
2018-12-18T22:30:07.197Z,22.14
2018-12-18T22:32:35.056Z,22.10
2018-12-18T22:35:02.881Z,22.18
2018-12-18T22:37:30.676Z,22.29
2018-12-18T22:39:58.569Z,22.24
2018-12-18T22:42:26.404Z,22.23
2018-12-18T22:44:54.206Z,22.14
2018-12-18T22:47:21.988Z,22.26
2018-12-18T22:49:49.804Z,22.32
2018-12-18T22:52:17.764Z,22.27
2018-12-18T22:54:45.564Z,22.40
2018-12-18T22:57:13.208Z,22.33
2018-12-18T22:59:40.996Z,22.34
2018-12-18T23:02:13.906Z,22.40
2018-12-18T23:04:41.999Z,22.41
2018-12-18T23:07:09.604Z,22.35
2018-12-18T23:09:37.219Z,22.52
2018-12-18T23:12:04.928Z,22.46
2018-12-18T23:14:32.525Z,22.45
2018-12-18T23:17:00.129Z,22.52
2018-12-18T23:19:27.794Z,22.49
2018-12-18T23:21:55.423Z,22.43
2018-12-18T23:24:23.046Z,22.53
2018-12-18T23:26:50.685Z,22.60
2018-12-18T23:29:18.284Z,22.67
2018-12-18T23:31:45.925Z,22.61
2018-12-18T23:34:13.538Z,22.62
2018-12-18T23:36:41.159Z,22.61
2018-12-18T23:39:08.791Z,22.65
2018-12-18T23:41:36.722Z,22.74
2018-12-18T23:44:04.589Z,22.80
2018-12-18T23:46:32.185Z,22.78
2018-12-18T23:48:59.814Z,22.77
2018-12-18T23:51:27.450Z,22.77
2018-12-18T23:53:55.076Z,22.80
2018-12-18T23:56:22.853Z,22.89
2018-12-18T23:58:50.476Z,22.82
